sensor_id;sensor_type;location;lat;lon;timestamp;P1;durP1;ratioP1;P2;durP2;ratioP2
76852;SDS011;65825;52.232;10.566;2023-03-14T00:02:18;6.25;;;2.00;;
76852;SDS011;65825;52.232;10.566;2023-03-14T00:04:43;7.10;;;2.40;;
76852;SDS011;65825;52.232;10.566;2023-03-14T00:07:10;3.77;;;1.90;;
76852;SDS011;65825;52.232;10.566;2023-03-14T00:09:36;6.70;;;2.38;;
76852;SDS011;65825;52.232;10.566;2023-03-14T00:12:01;5.07;;;1.88;;
76852;SDS011;65825;52.232;10.566;2023-03-14T00:14:28;3.95;;;1.92;;
76852;SDS011;65825;52.232;10.566;2023-03-14T00:16:53;5.90;;;2.10;;
76852;SDS011;65825;52.232;10.566;2023-03-14T00:19:21;3.65;;;2.10;;
76852;SDS011;65825;52.232;10.566;2023-03-14T00:21:46;5.77;;;2.17;;
76852;SDS011;65825;52.232;10.566;2023-03-14T00:24:12;4.45;;;1.92;;
76852;SDS011;65825;52.232;10.566;2023-03-14T00:26:39;3.85;;;1.92;;
76852;SDS011;65825;52.232;10.566;2023-03-14T00:29:05;5.37;;;1.90;;
76852;SDS011;65825;52.232;10.566;2023-03-14T00:31:30;3.25;;;1.90;;
76852;SDS011;65825;52.232;10.566;2023-03-14T00:33:55;4.23;;;1.97;;
76852;SDS011;65825;52.232;10.566;2023-03-14T00:36:21;5.28;;;2.17;;
76852;SDS011;65825;52.232;10.566;2023-03-14T00:38:48;4.03;;;2.00;;
76852;SDS011;65825;52.232;10.566;2023-03-14T00:41:16;5.95;;;2.00;;
76852;SDS011;65825;52.232;10.566;2023-03-14T00:43:43;3.35;;;1.73;;
76852;SDS011;65825;52.232;10.566;2023-03-14T00:46:09;6.57;;;1.90;;
76852;SDS011;65825;52.232;10.566;2023-03-14T00:48:34;4.85;;;1.95;;
76852;SDS011;65825;52.232;10.566;2023-03-14T00:51:00;4.53;;;1.90;;
76852;SDS011;65825;52.232;10.566;2023-03-14T00:53:26;3.72;;;1.88;;
76852;SDS011;65825;52.232;10.566;2023-03-14T00:55:52;4.00;;;2.03;;
76852;SDS011;65825;52.232;10.566;2023-03-14T00:58:17;4.13;;;1.67;;
76852;SDS011;65825;52.232;10.566;2023-03-14T01:00:45;4.00;;;1.80;;
76852;SDS011;65825;52.232;10.566;2023-03-14T01:03:11;4.50;;;1.92;;
76852;SDS011;65825;52.232;10.566;2023-03-14T01:08:03;6.53;;;1.80;;
76852;SDS011;65825;52.232;10.566;2023-03-14T01:10:29;5.03;;;1.70;;
76852;SDS011;65825;52.232;10.566;2023-03-14T01:12:54;3.67;;;1.77;;
76852;SDS011;65825;52.232;10.566;2023-03-14T01:15:20;4.50;;;1.67;;
76852;SDS011;65825;52.232;10.566;2023-03-14T01:17:45;3.97;;;1.63;;
76852;SDS011;65825;52.232;10.566;2023-03-14T01:20:12;3.38;;;1.58;;
76852;SDS011;65825;52.232;10.566;2023-03-14T01:22:39;5.03;;;2.00;;
76852;SDS011;65825;52.232;10.566;2023-03-14T01:25:06;5.30;;;1.73;;
76852;SDS011;65825;52.232;10.566;2023-03-14T01:27:33;2.85;;;1.60;;
76852;SDS011;65825;52.232;10.566;2023-03-14T01:29:58;7.30;;;1.83;;
76852;SDS011;65825;52.232;10.566;2023-03-14T01:32:23;3.60;;;1.65;;
76852;SDS011;65825;52.232;10.566;2023-03-14T01:34:49;5.88;;;2.05;;
76852;SDS011;65825;52.232;10.566;2023-03-14T01:37:14;4.50;;;1.70;;
76852;SDS011;65825;52.232;10.566;2023-03-14T01:39:39;3.73;;;1.80;;
76852;SDS011;65825;52.232;10.566;2023-03-14T01:42:05;6.03;;;1.83;;
76852;SDS011;65825;52.232;10.566;2023-03-14T01:47:17;5.28;;;1.63;;
76852;SDS011;65825;52.232;10.566;2023-03-14T01:49:42;2.97;;;1.65;;
76852;SDS011;65825;52.232;10.566;2023-03-14T01:52:13;4.97;;;1.70;;
76852;SDS011;65825;52.232;10.566;2023-03-14T01:54:43;5.47;;;1.60;;
76852;SDS011;65825;52.232;10.566;2023-03-14T01:57:16;7.35;;;1.70;;
76852;SDS011;65825;52.232;10.566;2023-03-14T01:59:57;3.63;;;1.48;;
76852;SDS011;65825;52.232;10.566;2023-03-14T02:02:26;4.43;;;1.73;;
76852;SDS011;65825;52.232;10.566;2023-03-14T02:04:53;5.30;;;1.85;;
76852;SDS011;65825;52.232;10.566;2023-03-14T02:07:24;2.53;;;1.52;;
76852;SDS011;65825;52.232;10.566;2023-03-14T02:09:56;4.22;;;1.40;;
76852;SDS011;65825;52.232;10.566;2023-03-14T02:12:23;4.68;;;1.60;;
76852;SDS011;65825;52.232;10.566;2023-03-14T02:14:49;5.13;;;1.73;;
76852;SDS011;65825;52.232;10.566;2023-03-14T02:17:16;3.58;;;1.38;;
76852;SDS011;65825;52.232;10.566;2023-03-14T02:22:50;3.72;;;1.48;;
76852;SDS011;65825;52.232;10.566;2023-03-14T02:28:05;5.50;;;1.70;;
76852;SDS011;65825;52.232;10.566;2023-03-14T02:30:31;3.85;;;1.70;;
76852;SDS011;65825;52.232;10.566;2023-03-14T02:32:58;5.20;;;1.70;;
76852;SDS011;65825;52.232;10.566;2023-03-14T02:35:27;6.50;;;1.52;;
76852;SDS011;65825;52.232;10.566;2023-03-14T02:37:56;3.15;;;1.40;;
76852;SDS011;65825;52.232;10.566;2023-03-14T02:40:28;3.15;;;1.20;;
76852;SDS011;65825;52.232;10.566;2023-03-14T02:42:53;8.03;;;2.20;;
76852;SDS011;65825;52.232;10.566;2023-03-14T02:47:49;3.88;;;1.23;;
76852;SDS011;65825;52.232;10.566;2023-03-14T02:50:26;4.03;;;1.30;;
76852;SDS011;65825;52.232;10.566;2023-03-14T02:52:55;6.05;;;1.50;;
76852;SDS011;65825;52.232;10.566;2023-03-14T02:55:21;4.73;;;1.90;;
76852;SDS011;65825;52.232;10.566;2023-03-14T02:57:47;2.13;;;1.20;;
76852;SDS011;65825;52.232;10.566;2023-03-14T03:00:12;4.27;;;1.80;;
76852;SDS011;65825;52.232;10.566;2023-03-14T03:02:38;2.25;;;1.25;;
76852;SDS011;65825;52.232;10.566;2023-03-14T03:05:04;4.95;;;1.70;;
76852;SDS011;65825;52.232;10.566;2023-03-14T03:07:29;2.72;;;1.30;;
76852;SDS011;65825;52.232;10.566;2023-03-14T03:09:55;3.83;;;1.30;;
76852;SDS011;65825;52.232;10.566;2023-03-14T03:12:20;6.27;;;1.60;;
76852;SDS011;65825;52.232;10.566;2023-03-14T03:14:45;5.60;;;1.60;;
76852;SDS011;65825;52.232;10.566;2023-03-14T03:17:10;3.37;;;1.50;;
76852;SDS011;65825;52.232;10.566;2023-03-14T03:19:36;2.58;;;1.27;;
76852;SDS011;65825;52.232;10.566;2023-03-14T03:22:01;2.63;;;1.37;;
76852;SDS011;65825;52.232;10.566;2023-03-14T03:24:26;1.90;;;1.30;;
76852;SDS011;65825;52.232;10.566;2023-03-14T03:26:52;4.97;;;1.50;;
76852;SDS011;65825;52.232;10.566;2023-03-14T03:29:17;2.95;;;1.50;;
76852;SDS011;65825;52.232;10.566;2023-03-14T03:31:43;3.85;;;1.50;;
76852;SDS011;65825;52.232;10.566;2023-03-14T03:34:10;3.47;;;1.52;;
76852;SDS011;65825;52.232;10.566;2023-03-14T03:36:37;3.10;;;1.50;;
76852;SDS011;65825;52.232;10.566;2023-03-14T03:39:02;2.88;;;1.40;;
76852;SDS011;65825;52.232;10.566;2023-03-14T03:41:28;3.50;;;1.50;;
76852;SDS011;65825;52.232;10.566;2023-03-14T03:43:54;4.15;;;1.50;;
76852;SDS011;65825;52.232;10.566;2023-03-14T03:46:19;4.22;;;1.45;;
76852;SDS011;65825;52.232;10.566;2023-03-14T03:48:45;5.50;;;1.40;;
76852;SDS011;65825;52.232;10.566;2023-03-14T03:51:14;2.17;;;1.27;;
76852;SDS011;65825;52.232;10.566;2023-03-14T03:53:40;4.65;;;1.40;;
76852;SDS011;65825;52.232;10.566;2023-03-14T03:56:07;3.83;;;1.58;;
76852;SDS011;65825;52.232;10.566;2023-03-14T03:58:32;3.65;;;1.45;;
76852;SDS011;65825;52.232;10.566;2023-03-14T04:00:58;2.97;;;1.40;;
76852;SDS011;65825;52.232;10.566;2023-03-14T04:03:23;6.07;;;1.60;;
76852;SDS011;65825;52.232;10.566;2023-03-14T04:05:57;5.38;;;1.85;;
76852;SDS011;65825;52.232;10.566;2023-03-14T04:08:33;4.88;;;1.90;;
76852;SDS011;65825;52.232;10.566;2023-03-14T04:10:59;5.40;;;1.67;;
76852;SDS011;65825;52.232;10.566;2023-03-14T04:13:26;5.60;;;1.70;;
76852;SDS011;65825;52.232;10.566;2023-03-14T04:15:52;4.85;;;1.98;;
76852;SDS011;65825;52.232;10.566;2023-03-14T04:20:44;6.22;;;1.92;;
76852;SDS011;65825;52.232;10.566;2023-03-14T04:23:09;5.85;;;1.98;;
76852;SDS011;65825;52.232;10.566;2023-03-14T04:25:35;3.92;;;1.80;;
76852;SDS011;65825;52.232;10.566;2023-03-14T04:28:00;3.80;;;1.80;;
76852;SDS011;65825;52.232;10.566;2023-03-14T04:30:26;2.30;;;1.40;;
76852;SDS011;65825;52.232;10.566;2023-03-14T04:32:51;4.63;;;1.70;;
76852;SDS011;65825;52.232;10.566;2023-03-14T04:35:17;5.20;;;1.73;;
76852;SDS011;65825;52.232;10.566;2023-03-14T04:37:42;3.20;;;1.50;;
76852;SDS011;65825;52.232;10.566;2023-03-14T04:40:08;4.75;;;1.60;;
76852;SDS011;65825;52.232;10.566;2023-03-14T04:42:34;5.10;;;1.60;;
76852;SDS011;65825;52.232;10.566;2023-03-14T04:44:59;5.45;;;1.80;;
76852;SDS011;65825;52.232;10.566;2023-03-14T04:47:25;5.07;;;1.70;;
76852;SDS011;65825;52.232;10.566;2023-03-14T04:49:51;4.68;;;1.70;;
76852;SDS011;65825;52.232;10.566;2023-03-14T04:52:16;5.18;;;1.67;;
76852;SDS011;65825;52.232;10.566;2023-03-14T04:54:41;4.17;;;1.60;;
76852;SDS011;65825;52.232;10.566;2023-03-14T04:57:07;7.78;;;1.83;;
76852;SDS011;65825;52.232;10.566;2023-03-14T04:59:32;4.83;;;1.80;;
76852;SDS011;65825;52.232;10.566;2023-03-14T05:01:57;2.40;;;1.30;;
76852;SDS011;65825;52.232;10.566;2023-03-14T05:04:22;4.57;;;1.70;;
76852;SDS011;65825;52.232;10.566;2023-03-14T05:06:48;3.13;;;1.83;;
76852;SDS011;65825;52.232;10.566;2023-03-14T05:09:13;4.35;;;1.90;;
76852;SDS011;65825;52.232;10.566;2023-03-14T05:14:05;6.23;;;1.67;;
76852;SDS011;65825;52.232;10.566;2023-03-14T05:16:30;3.83;;;1.60;;
76852;SDS011;65825;52.232;10.566;2023-03-14T05:18:56;4.03;;;1.80;;
76852;SDS011;65825;52.232;10.566;2023-03-14T05:21:21;4.97;;;1.60;;
76852;SDS011;65825;52.232;10.566;2023-03-14T05:23:46;3.33;;;1.27;;
76852;SDS011;65825;52.232;10.566;2023-03-14T05:26:11;2.90;;;1.50;;
76852;SDS011;65825;52.232;10.566;2023-03-14T05:28:37;5.70;;;1.40;;
76852;SDS011;65825;52.232;10.566;2023-03-14T05:31:05;2.33;;;1.50;;
76852;SDS011;65825;52.232;10.566;2023-03-14T05:33:31;6.53;;;1.88;;
76852;SDS011;65825;52.232;10.566;2023-03-14T05:35:56;4.37;;;2.10;;
76852;SDS011;65825;52.232;10.566;2023-03-14T05:38:22;8.80;;;2.25;;
76852;SDS011;65825;52.232;10.566;2023-03-14T05:40:47;8.43;;;2.30;;
76852;SDS011;65825;52.232;10.566;2023-03-14T05:43:12;7.70;;;2.20;;
76852;SDS011;65825;52.232;10.566;2023-03-14T05:45:38;6.00;;;2.05;;
76852;SDS011;65825;52.232;10.566;2023-03-14T05:48:03;8.20;;;1.90;;
76852;SDS011;65825;52.232;10.566;2023-03-14T05:50:29;4.15;;;1.60;;
76852;SDS011;65825;52.232;10.566;2023-03-14T05:52:54;4.65;;;1.77;;
76852;SDS011;65825;52.232;10.566;2023-03-14T05:55:20;5.93;;;1.80;;
76852;SDS011;65825;52.232;10.566;2023-03-14T05:57:45;3.67;;;1.70;;
76852;SDS011;65825;52.232;10.566;2023-03-14T06:00:10;2.60;;;1.40;;
76852;SDS011;65825;52.232;10.566;2023-03-14T06:02:36;2.30;;;1.30;;
76852;SDS011;65825;52.232;10.566;2023-03-14T06:05:01;2.13;;;1.10;;
76852;SDS011;65825;52.232;10.566;2023-03-14T06:07:26;3.07;;;0.90;;
76852;SDS011;65825;52.232;10.566;2023-03-14T06:09:52;2.07;;;0.97;;
76852;SDS011;65825;52.232;10.566;2023-03-14T06:12:17;3.17;;;1.10;;
76852;SDS011;65825;52.232;10.566;2023-03-14T06:14:42;2.77;;;1.00;;
76852;SDS011;65825;52.232;10.566;2023-03-14T06:17:07;1.80;;;0.90;;
76852;SDS011;65825;52.232;10.566;2023-03-14T06:19:32;1.73;;;0.93;;
76852;SDS011;65825;52.232;10.566;2023-03-14T06:21:58;1.73;;;1.00;;
76852;SDS011;65825;52.232;10.566;2023-03-14T06:24:23;1.40;;;0.90;;
76852;SDS011;65825;52.232;10.566;2023-03-14T06:26:48;4.20;;;1.20;;
76852;SDS011;65825;52.232;10.566;2023-03-14T06:29:13;1.77;;;1.00;;
76852;SDS011;65825;52.232;10.566;2023-03-14T06:31:39;1.52;;;0.80;;
76852;SDS011;65825;52.232;10.566;2023-03-14T06:34:04;2.47;;;0.87;;
76852;SDS011;65825;52.232;10.566;2023-03-14T06:36:30;2.33;;;0.75;;
76852;SDS011;65825;52.232;10.566;2023-03-14T06:38:55;2.80;;;0.90;;
76852;SDS011;65825;52.232;10.566;2023-03-14T06:41:20;5.37;;;0.97;;
76852;SDS011;65825;52.232;10.566;2023-03-14T06:43:48;3.13;;;0.90;;
76852;SDS011;65825;52.232;10.566;2023-03-14T06:46:13;2.30;;;0.80;;
76852;SDS011;65825;52.232;10.566;2023-03-14T06:48:40;3.30;;;0.88;;
76852;SDS011;65825;52.232;10.566;2023-03-14T06:51:05;2.53;;;0.80;;
76852;SDS011;65825;52.232;10.566;2023-03-14T06:53:31;1.25;;;0.73;;
76852;SDS011;65825;52.232;10.566;2023-03-14T06:55:56;2.63;;;0.83;;
76852;SDS011;65825;52.232;10.566;2023-03-14T06:58:22;2.10;;;0.80;;
76852;SDS011;65825;52.232;10.566;2023-03-14T07:00:47;2.45;;;0.90;;
76852;SDS011;65825;52.232;10.566;2023-03-14T07:03:13;4.40;;;0.93;;
76852;SDS011;65825;52.232;10.566;2023-03-14T07:08:05;5.75;;;1.20;;
76852;SDS011;65825;52.232;10.566;2023-03-14T07:10:31;6.15;;;1.45;;
76852;SDS011;65825;52.232;10.566;2023-03-14T07:12:56;6.47;;;1.30;;
76852;SDS011;65825;52.232;10.566;2023-03-14T07:15:22;3.97;;;1.80;;
76852;SDS011;65825;52.232;10.566;2023-03-14T07:17:47;7.45;;;2.28;;
76852;SDS011;65825;52.232;10.566;2023-03-14T07:20:13;5.13;;;1.98;;
76852;SDS011;65825;52.232;10.566;2023-03-14T07:22:38;5.28;;;2.00;;
76852;SDS011;65825;52.232;10.566;2023-03-14T07:25:04;4.65;;;1.63;;
76852;SDS011;65825;52.232;10.566;2023-03-14T07:27:30;5.65;;;1.50;;
76852;SDS011;65825;52.232;10.566;2023-03-14T07:29:55;4.13;;;1.48;;
76852;SDS011;65825;52.232;10.566;2023-03-14T07:32:21;6.53;;;1.80;;
76852;SDS011;65825;52.232;10.566;2023-03-14T07:34:46;4.55;;;1.48;;
76852;SDS011;65825;52.232;10.566;2023-03-14T07:37:11;7.80;;;1.60;;
76852;SDS011;65825;52.232;10.566;2023-03-14T07:39:36;5.78;;;1.52;;
76852;SDS011;65825;52.232;10.566;2023-03-14T07:42:02;9.63;;;2.22;;
76852;SDS011;65825;52.232;10.566;2023-03-14T07:44:27;9.82;;;1.80;;
76852;SDS011;65825;52.232;10.566;2023-03-14T07:46:53;8.55;;;1.88;;
76852;SDS011;65825;52.232;10.566;2023-03-14T07:49:18;7.57;;;2.08;;
76852;SDS011;65825;52.232;10.566;2023-03-14T07:51:43;7.82;;;2.00;;
76852;SDS011;65825;52.232;10.566;2023-03-14T07:54:11;7.13;;;2.17;;
76852;SDS011;65825;52.232;10.566;2023-03-14T07:56:37;8.37;;;1.93;;
76852;SDS011;65825;52.232;10.566;2023-03-14T07:59:02;10.73;;;1.92;;
76852;SDS011;65825;52.232;10.566;2023-03-14T08:01:28;6.93;;;1.92;;
76852;SDS011;65825;52.232;10.566;2023-03-14T08:03:53;6.20;;;1.80;;
76852;SDS011;65825;52.232;10.566;2023-03-14T08:06:19;4.70;;;1.50;;
76852;SDS011;65825;52.232;10.566;2023-03-14T08:08:44;3.87;;;1.43;;
76852;SDS011;65825;52.232;10.566;2023-03-14T08:11:09;3.83;;;1.50;;
76852;SDS011;65825;52.232;10.566;2023-03-14T08:13:35;5.97;;;1.80;;
76852;SDS011;65825;52.232;10.566;2023-03-14T08:16:01;5.60;;;1.45;;
76852;SDS011;65825;52.232;10.566;2023-03-14T08:18:27;4.30;;;1.38;;
76852;SDS011;65825;52.232;10.566;2023-03-14T08:20:52;11.53;;;1.60;;
76852;SDS011;65825;52.232;10.566;2023-03-14T08:23:17;4.80;;;1.40;;
76852;SDS011;65825;52.232;10.566;2023-03-14T08:25:43;4.25;;;1.50;;
76852;SDS011;65825;52.232;10.566;2023-03-14T08:28:08;5.07;;;1.60;;
76852;SDS011;65825;52.232;10.566;2023-03-14T08:30:33;6.88;;;1.50;;
76852;SDS011;65825;52.232;10.566;2023-03-14T08:32:58;7.23;;;1.67;;
76852;SDS011;65825;52.232;10.566;2023-03-14T08:35:24;5.55;;;1.73;;
76852;SDS011;65825;52.232;10.566;2023-03-14T08:37:50;6.93;;;1.40;;
76852;SDS011;65825;52.232;10.566;2023-03-14T08:42:42;5.22;;;1.25;;
76852;SDS011;65825;52.232;10.566;2023-03-14T08:45:08;5.75;;;1.50;;
76852;SDS011;65825;52.232;10.566;2023-03-14T08:47:35;3.35;;;1.30;;
76852;SDS011;65825;52.232;10.566;2023-03-14T08:50:00;5.23;;;1.67;;
76852;SDS011;65825;52.232;10.566;2023-03-14T08:52:25;5.70;;;1.40;;
76852;SDS011;65825;52.232;10.566;2023-03-14T08:54:51;4.90;;;1.40;;
76852;SDS011;65825;52.232;10.566;2023-03-14T08:57:16;5.80;;;1.50;;
76852;SDS011;65825;52.232;10.566;2023-03-14T08:59:41;2.85;;;1.50;;
76852;SDS011;65825;52.232;10.566;2023-03-14T09:02:09;6.28;;;1.80;;
76852;SDS011;65825;52.232;10.566;2023-03-14T09:04:36;4.47;;;1.60;;
76852;SDS011;65825;52.232;10.566;2023-03-14T09:07:01;3.20;;;1.40;;
76852;SDS011;65825;52.232;10.566;2023-03-14T09:09:26;4.23;;;1.50;;
76852;SDS011;65825;52.232;10.566;2023-03-14T09:11:52;3.28;;;1.38;;
76852;SDS011;65825;52.232;10.566;2023-03-14T09:14:17;3.88;;;1.55;;
76852;SDS011;65825;52.232;10.566;2023-03-14T09:16:43;5.07;;;1.45;;
76852;SDS011;65825;52.232;10.566;2023-03-14T09:19:08;6.68;;;1.55;;
76852;SDS011;65825;52.232;10.566;2023-03-14T09:21:34;6.38;;;2.00;;
76852;SDS011;65825;52.232;10.566;2023-03-14T09:23:59;2.63;;;1.42;;
76852;SDS011;65825;52.232;10.566;2023-03-14T09:26:25;6.35;;;1.70;;
76852;SDS011;65825;52.232;10.566;2023-03-14T09:28:50;7.30;;;2.10;;
76852;SDS011;65825;52.232;10.566;2023-03-14T09:31:15;5.00;;;2.08;;
76852;SDS011;65825;52.232;10.566;2023-03-14T09:33:41;5.55;;;1.95;;
76852;SDS011;65825;52.232;10.566;2023-03-14T09:36:06;4.30;;;1.47;;
76852;SDS011;65825;52.232;10.566;2023-03-14T09:40:58;3.60;;;1.27;;
76852;SDS011;65825;52.232;10.566;2023-03-14T09:43:26;4.03;;;1.40;;
76852;SDS011;65825;52.232;10.566;2023-03-14T09:45:56;3.65;;;1.30;;
76852;SDS011;65825;52.232;10.566;2023-03-14T09:48:27;3.33;;;1.58;;
76852;SDS011;65825;52.232;10.566;2023-03-14T09:50:55;3.33;;;1.20;;
76852;SDS011;65825;52.232;10.566;2023-03-14T09:56:13;3.28;;;1.40;;
76852;SDS011;65825;52.232;10.566;2023-03-14T09:58:42;5.15;;;1.50;;
76852;SDS011;65825;52.232;10.566;2023-03-14T10:01:13;2.08;;;1.00;;
76852;SDS011;65825;52.232;10.566;2023-03-14T10:03:41;2.20;;;1.13;;
76852;SDS011;65825;52.232;10.566;2023-03-14T10:06:13;4.53;;;1.73;;
76852;SDS011;65825;52.232;10.566;2023-03-14T10:08:41;2.13;;;1.05;;
76852;SDS011;65825;52.232;10.566;2023-03-14T10:11:12;3.22;;;1.70;;
76852;SDS011;65825;52.232;10.566;2023-03-14T10:16:12;3.63;;;1.50;;
76852;SDS011;65825;52.232;10.566;2023-03-14T10:18:38;6.57;;;2.60;;
76852;SDS011;65825;52.232;10.566;2023-03-14T10:21:28;4.28;;;1.70;;
76852;SDS011;65825;52.232;10.566;2023-03-14T10:24:06;3.55;;;1.40;;
76852;SDS011;65825;52.232;10.566;2023-03-14T10:26:42;2.33;;;1.10;;
76852;SDS011;65825;52.232;10.566;2023-03-14T10:29:09;3.10;;;0.90;;
76852;SDS011;65825;52.232;10.566;2023-03-14T10:32:10;4.38;;;1.50;;
76852;SDS011;65825;52.232;10.566;2023-03-14T10:34:31;6.00;;;1.20;;
76852;SDS011;65825;52.232;10.566;2023-03-14T10:37:05;3.35;;;1.50;;
76852;SDS011;65825;52.232;10.566;2023-03-14T10:39:46;3.17;;;1.20;;
76852;SDS011;65825;52.232;10.566;2023-03-14T10:44:46;7.55;;;1.70;;
76852;SDS011;65825;52.232;10.566;2023-03-14T10:47:19;3.53;;;1.70;;
76852;SDS011;65825;52.232;10.566;2023-03-14T10:49:48;4.72;;;1.50;;
76852;SDS011;65825;52.232;10.566;2023-03-14T10:54:38;4.73;;;1.40;;
76852;SDS011;65825;52.232;10.566;2023-03-14T10:57:04;5.68;;;1.75;;
76852;SDS011;65825;52.232;10.566;2023-03-14T10:59:35;3.55;;;1.45;;
76852;SDS011;65825;52.232;10.566;2023-03-14T11:35:05;2.45;;;1.23;;
76852;SDS011;65825;52.232;10.566;2023-03-14T11:37:42;1.67;;;1.00;;
76852;SDS011;65825;52.232;10.566;2023-03-14T11:40:14;3.30;;;1.05;;
76852;SDS011;65825;52.232;10.566;2023-03-14T11:42:43;1.25;;;0.98;;
76852;SDS011;65825;52.232;10.566;2023-03-14T11:45:18;1.45;;;0.80;;
76852;SDS011;65825;52.232;10.566;2023-03-14T11:47:53;1.27;;;0.90;;
76852;SDS011;65825;52.232;10.566;2023-03-14T11:50:27;2.78;;;1.10;;
76852;SDS011;65825;52.232;10.566;2023-03-14T11:53:14;3.40;;;1.27;;
76852;SDS011;65825;52.232;10.566;2023-03-14T11:55:44;3.25;;;1.23;;
76852;SDS011;65825;52.232;10.566;2023-03-14T12:01:01;5.35;;;1.77;;
76852;SDS011;65825;52.232;10.566;2023-03-14T12:03:53;6.25;;;2.00;;
76852;SDS011;65825;52.232;10.566;2023-03-14T12:09:03;3.63;;;1.38;;
76852;SDS011;65825;52.232;10.566;2023-03-14T12:16:32;0.73;;;0.70;;
76852;SDS011;65825;52.232;10.566;2023-03-14T12:21:46;5.20;;;1.25;;
76852;SDS011;65825;52.232;10.566;2023-03-14T12:24:19;2.00;;;1.10;;
76852;SDS011;65825;52.232;10.566;2023-03-14T12:26:59;2.58;;;1.20;;
76852;SDS011;65825;52.232;10.566;2023-03-14T12:29:26;2.70;;;0.98;;
76852;SDS011;65825;52.232;10.566;2023-03-14T12:34:33;0.73;;;0.73;;
76852;SDS011;65825;52.232;10.566;2023-03-14T12:39:46;2.63;;;1.02;;
76852;SDS011;65825;52.232;10.566;2023-03-14T12:47:55;1.13;;;0.75;;
76852;SDS011;65825;52.232;10.566;2023-03-14T12:50:28;1.33;;;0.90;;
76852;SDS011;65825;52.232;10.566;2023-03-14T12:56:02;3.95;;;0.90;;
76852;SDS011;65825;52.232;10.566;2023-03-14T12:58:44;2.60;;;0.90;;
76852;SDS011;65825;52.232;10.566;2023-03-14T13:01:30;0.55;;;0.55;;
76852;SDS011;65825;52.232;10.566;2023-03-14T13:04:02;0.70;;;0.70;;
76852;SDS011;65825;52.232;10.566;2023-03-14T13:06:50;1.25;;;0.68;;
76852;SDS011;65825;52.232;10.566;2023-03-14T13:11:54;1.52;;;0.73;;
76852;SDS011;65825;52.232;10.566;2023-03-14T13:14:21;2.28;;;0.77;;
76852;SDS011;65825;52.232;10.566;2023-03-14T13:16:48;1.00;;;0.70;;
76852;SDS011;65825;52.232;10.566;2023-03-14T13:19:20;1.05;;;0.70;;
76852;SDS011;65825;52.232;10.566;2023-03-14T13:21:49;0.95;;;0.65;;
76852;SDS011;65825;52.232;10.566;2023-03-14T13:24:25;1.58;;;0.52;;
76852;SDS011;65825;52.232;10.566;2023-03-14T13:26:53;0.68;;;0.68;;
76852;SDS011;65825;52.232;10.566;2023-03-14T13:29:20;3.58;;;1.20;;
76852;SDS011;65825;52.232;10.566;2023-03-14T13:31:49;1.20;;;0.90;;
76852;SDS011;65825;52.232;10.566;2023-03-14T13:34:19;0.98;;;0.70;;
76852;SDS011;65825;52.232;10.566;2023-03-14T13:36:45;0.82;;;0.80;;
76852;SDS011;65825;52.232;10.566;2023-03-14T13:39:12;1.02;;;0.90;;
76852;SDS011;65825;52.232;10.566;2023-03-14T13:41:39;2.80;;;0.98;;
76852;SDS011;65825;52.232;10.566;2023-03-14T13:44:06;0.80;;;0.80;;
76852;SDS011;65825;52.232;10.566;2023-03-14T13:46:38;0.98;;;0.82;;
76852;SDS011;65825;52.232;10.566;2023-03-14T13:49:13;2.83;;;0.70;;
76852;SDS011;65825;52.232;10.566;2023-03-14T13:51:46;1.17;;;0.90;;
76852;SDS011;65825;52.232;10.566;2023-03-14T13:54:15;1.48;;;0.80;;
76852;SDS011;65825;52.232;10.566;2023-03-14T13:56:43;6.05;;;1.00;;
76852;SDS011;65825;52.232;10.566;2023-03-14T13:59:25;2.60;;;0.80;;
76852;SDS011;65825;52.232;10.566;2023-03-14T14:01:56;3.67;;;1.00;;
76852;SDS011;65825;52.232;10.566;2023-03-14T14:04:25;4.28;;;1.50;;
76852;SDS011;65825;52.232;10.566;2023-03-14T14:09:24;9.65;;;2.05;;
76852;SDS011;65825;52.232;10.566;2023-03-14T14:11:56;2.72;;;1.38;;
76852;SDS011;65825;52.232;10.566;2023-03-14T14:16:54;10.05;;;1.58;;
76852;SDS011;65825;52.232;10.566;2023-03-14T14:19:21;5.03;;;1.30;;
76852;SDS011;65825;52.232;10.566;2023-03-14T14:21:50;5.47;;;1.58;;
76852;SDS011;65825;52.232;10.566;2023-03-14T14:24:15;4.25;;;1.50;;
76852;SDS011;65825;52.232;10.566;2023-03-14T14:26:50;7.15;;;1.73;;
76852;SDS011;65825;52.232;10.566;2023-03-14T14:29:25;5.28;;;1.45;;
76852;SDS011;65825;52.232;10.566;2023-03-14T14:32:02;5.53;;;1.50;;
76852;SDS011;65825;52.232;10.566;2023-03-14T14:34:41;3.35;;;1.55;;
76852;SDS011;65825;52.232;10.566;2023-03-14T14:39:56;9.68;;;1.45;;
76852;SDS011;65825;52.232;10.566;2023-03-14T14:42:25;4.63;;;1.30;;
76852;SDS011;65825;52.232;10.566;2023-03-14T14:44:52;4.63;;;1.65;;
76852;SDS011;65825;52.232;10.566;2023-03-14T14:47:20;7.35;;;1.40;;
76852;SDS011;65825;52.232;10.566;2023-03-14T14:49:48;5.75;;;1.40;;
76852;SDS011;65825;52.232;10.566;2023-03-14T14:54:45;6.60;;;1.50;;
76852;SDS011;65825;52.232;10.566;2023-03-14T14:57:24;8.07;;;1.85;;
76852;SDS011;65825;52.232;10.566;2023-03-14T14:59:55;3.08;;;1.20;;
76852;SDS011;65825;52.232;10.566;2023-03-14T15:02:36;5.38;;;1.08;;
76852;SDS011;65825;52.232;10.566;2023-03-14T15:05:16;5.90;;;1.17;;
76852;SDS011;65825;52.232;10.566;2023-03-14T15:07:43;6.88;;;1.75;;
76852;SDS011;65825;52.232;10.566;2023-03-14T15:10:12;6.47;;;1.48;;
76852;SDS011;65825;52.232;10.566;2023-03-14T15:12:40;11.40;;;1.73;;
76852;SDS011;65825;52.232;10.566;2023-03-14T15:15:05;10.20;;;1.20;;
76852;SDS011;65825;52.232;10.566;2023-03-14T15:17:31;7.78;;;1.55;;
76852;SDS011;65825;52.232;10.566;2023-03-14T15:19:57;6.82;;;1.73;;
76852;SDS011;65825;52.232;10.566;2023-03-14T15:22:23;5.10;;;1.40;;
76852;SDS011;65825;52.232;10.566;2023-03-14T15:24:49;8.02;;;1.73;;
76852;SDS011;65825;52.232;10.566;2023-03-14T15:27:15;13.07;;;2.60;;
76852;SDS011;65825;52.232;10.566;2023-03-14T15:29:42;9.13;;;1.90;;
76852;SDS011;65825;52.232;10.566;2023-03-14T15:32:15;10.55;;;1.92;;
76852;SDS011;65825;52.232;10.566;2023-03-14T15:34:41;11.65;;;1.98;;
76852;SDS011;65825;52.232;10.566;2023-03-14T15:37:14;11.27;;;2.03;;
76852;SDS011;65825;52.232;10.566;2023-03-14T15:39:44;10.93;;;1.95;;
76852;SDS011;65825;52.232;10.566;2023-03-14T15:42:10;6.30;;;1.67;;
76852;SDS011;65825;52.232;10.566;2023-03-14T15:44:35;6.07;;;1.70;;
76852;SDS011;65825;52.232;10.566;2023-03-14T15:47:01;9.07;;;2.35;;
76852;SDS011;65825;52.232;10.566;2023-03-14T15:49:27;6.43;;;1.90;;
76852;SDS011;65825;52.232;10.566;2023-03-14T15:51:52;12.90;;;2.13;;
76852;SDS011;65825;52.232;10.566;2023-03-14T15:54:17;6.37;;;1.60;;
76852;SDS011;65825;52.232;10.566;2023-03-14T15:56:43;11.60;;;2.10;;
76852;SDS011;65825;52.232;10.566;2023-03-14T15:59:08;6.13;;;1.40;;
76852;SDS011;65825;52.232;10.566;2023-03-14T16:01:33;14.13;;;1.90;;
76852;SDS011;65825;52.232;10.566;2023-03-14T16:03:59;10.17;;;1.90;;
76852;SDS011;65825;52.232;10.566;2023-03-14T16:06:24;9.38;;;1.70;;
76852;SDS011;65825;52.232;10.566;2023-03-14T16:08:49;9.43;;;1.63;;
76852;SDS011;65825;52.232;10.566;2023-03-14T16:11:15;8.90;;;1.60;;
76852;SDS011;65825;52.232;10.566;2023-03-14T16:13:42;9.18;;;2.55;;
76852;SDS011;65825;52.232;10.566;2023-03-14T16:16:08;10.48;;;1.98;;
76852;SDS011;65825;52.232;10.566;2023-03-14T16:18:35;14.57;;;1.80;;
76852;SDS011;65825;52.232;10.566;2023-03-14T16:21:06;6.07;;;1.60;;
76852;SDS011;65825;52.232;10.566;2023-03-14T16:23:33;7.45;;;1.83;;
76852;SDS011;65825;52.232;10.566;2023-03-14T16:26:02;6.03;;;1.80;;